createdAt,value
2022-11-16T00:01:08.145Z,99631.84
2022-11-16T00:11:09.382Z,99625.09
2022-11-16T00:21:10.634Z,99626.69
2022-11-16T00:31:11.873Z,99637.16
2022-11-16T00:41:13.126Z,99604.09
2022-11-16T00:51:14.427Z,99618.94
2022-11-16T01:01:15.733Z,99604.91
2022-11-16T01:11:17.044Z,99614.88
2022-11-16T01:21:18.318Z,99596.31
2022-11-16T01:31:19.619Z,99585.00
2022-11-16T01:41:23.589Z,99576.25
2022-11-16T01:51:24.859Z,99577.34
2022-11-16T02:01:26.215Z,99578.03
2022-11-16T02:11:27.514Z,99566.88
2022-11-16T02:21:28.781Z,99572.81
2022-11-16T02:31:30.033Z,99580.91
2022-11-16T02:41:31.316Z,99573.97
2022-11-16T02:51:32.571Z,99577.44
2022-11-16T03:01:33.857Z,99588.75
2022-11-16T03:11:35.142Z,99582.56
2022-11-16T03:21:36.386Z,99583.78
2022-11-16T03:31:37.610Z,99589.84
2022-11-16T03:41:38.856Z,99592.38
2022-11-16T03:51:40.113Z,99617.91
2022-11-16T04:01:44.730Z,99623.91
2022-11-16T04:11:46.316Z,99636.06
2022-11-16T04:21:47.617Z,99630.81
2022-11-16T04:31:48.896Z,99640.41
2022-11-16T04:41:50.138Z,99650.69
2022-11-16T04:51:51.371Z,99651.13
2022-11-16T05:01:52.771Z,99665.81
2022-11-16T05:11:54.122Z,99658.31
2022-11-16T05:21:55.394Z,99669.22
2022-11-16T05:31:56.700Z,99662.72
2022-11-16T05:41:57.987Z,99663.25
2022-11-16T05:51:59.241Z,99671.84
2022-11-16T06:02:00.606Z,99682.75
2022-11-16T06:12:01.862Z,99689.81
2022-11-16T06:22:03.147Z,99691.41
2022-11-16T06:32:04.621Z,99714.63
2022-11-16T06:42:05.945Z,99722.47
2022-11-16T06:52:07.245Z,99724.00
2022-11-16T07:02:08.637Z,99735.56
2022-11-16T07:12:10.065Z,99736.97
2022-11-16T07:22:11.425Z,99744.75
2022-11-16T07:32:12.683Z,99757.19
2022-11-16T07:42:14.063Z,99767.81
2022-11-16T07:52:15.419Z,99780.56
2022-11-16T08:02:16.781Z,99786.88
2022-11-16T08:12:18.068Z,99791.34
2022-11-16T08:22:19.331Z,99798.59
2022-11-16T08:32:20.712Z,99785.25
2022-11-16T08:42:21.963Z,99786.88
2022-11-16T08:52:23.315Z,99792.38
2022-11-16T09:02:24.792Z,99804.38
2022-11-16T09:12:26.139Z,99808.81
2022-11-16T09:22:27.453Z,99809.25
2022-11-16T09:32:28.692Z,99808.47
2022-11-16T09:42:29.933Z,99817.19
2022-11-16T09:52:31.567Z,99821.56
2022-11-16T10:02:32.846Z,99818.28
2022-11-16T10:12:34.249Z,99820.81
2022-11-16T10:22:39.650Z,99816.25
2022-11-16T10:32:47.425Z,99805.84
2022-11-16T10:42:55.383Z,99818.75
2022-11-16T10:53:03.426Z,99805.84
2022-11-16T11:03:11.380Z,99815.50
2022-11-16T11:13:20.417Z,99807.38
2022-11-16T11:23:28.426Z,99818.03
2022-11-16T11:33:36.646Z,99795.81
2022-11-16T11:43:44.441Z,99785.69
2022-11-16T11:53:53.442Z,99776.69
2022-11-16T12:04:01.511Z,99752.06
2022-11-16T12:14:09.382Z,99747.44
2022-11-16T12:24:18.404Z,99727.41
2022-11-16T12:34:26.462Z,99727.03
2022-11-16T12:44:34.417Z,99716.00
2022-11-16T12:54:57.935Z,99689.38
2022-11-16T13:05:03.640Z,99686.84
2022-11-16T13:15:04.999Z,99685.34
2022-11-16T13:25:07.526Z,99673.50
2022-11-16T13:35:15.410Z,99684.81
2022-11-16T13:45:24.439Z,99676.28
2022-11-16T13:55:32.463Z,99670.03
2022-11-16T14:05:41.635Z,99672.16
2022-11-16T14:15:49.462Z,99662.38
2022-11-16T14:25:57.440Z,99644.13
2022-11-16T14:36:05.443Z,99644.50
2022-11-16T14:46:13.463Z,99628.03
2022-11-16T14:56:22.433Z,99612.50
2022-11-16T15:06:30.439Z,99609.97
2022-11-16T15:16:38.436Z,99607.19
2022-11-16T15:26:46.434Z,99580.53
2022-11-16T15:36:47.754Z,99574.72
2022-11-16T15:46:49.186Z,99562.75
2022-11-16T15:56:50.600Z,99542.84
2022-11-16T16:06:52.013Z,99518.28
2022-11-16T16:16:53.394Z,99508.81
2022-11-16T16:26:54.739Z,99506.47
2022-11-16T16:36:56.131Z,99505.81
2022-11-16T16:47:11.293Z,99488.81
2022-11-16T16:57:12.631Z,99470.22
2022-11-16T17:07:13.889Z,99461.63
2022-11-16T17:17:15.288Z,99453.88
2022-11-16T17:27:16.570Z,99455.75
2022-11-16T17:37:17.963Z,99444.41
2022-11-16T17:47:19.356Z,99421.94
2022-11-16T17:57:20.703Z,99428.72
2022-11-16T18:07:22.015Z,99422.03
2022-11-16T18:17:23.457Z,99431.63
2022-11-16T18:27:24.895Z,99424.44
2022-11-16T18:37:26.133Z,99424.72
2022-11-16T18:47:27.402Z,99411.66
2022-11-16T18:57:28.633Z,99398.50
2022-11-16T19:07:30.133Z,99373.34
2022-11-16T19:17:31.415Z,99362.06
2022-11-16T19:27:32.750Z,99335.25
2022-11-16T19:37:34.085Z,99318.44
2022-11-16T19:47:35.446Z,99263.06
2022-11-16T19:57:36.703Z,99241.41
2022-11-16T20:07:38.041Z,99224.97
2022-11-16T20:17:39.305Z,99214.25
2022-11-16T20:27:40.673Z,99193.41
2022-11-16T20:37:41.991Z,99171.53
2022-11-16T20:47:43.306Z,99152.50
2022-11-16T20:57:44.672Z,99148.78
2022-11-16T21:07:46.017Z,99142.59
2022-11-16T21:17:47.468Z,99115.28
2022-11-16T21:27:48.806Z,99099.41
2022-11-16T21:37:50.247Z,99066.47
2022-11-16T21:47:51.662Z,99038.94
2022-11-16T21:57:52.983Z,99022.34
2022-11-16T22:07:54.356Z,98988.53
2022-11-16T22:17:55.618Z,98948.38
2022-11-16T22:28:23.967Z,98906.03
2022-11-16T22:38:29.635Z,98853.84
2022-11-16T23:19:41.732Z,98731.81
2022-11-16T23:29:46.107Z,98688.41
